Time;durP1;ratioP1;P1;durP2;ratioP2;P2;SDS_P1;SDS_P2;PMS_P1;PMS_P2;Temp;Humidity;BMP_temperature;BMP_pressure;BME280_temperature;BME280_humidity;BME280_pressure;Samples;Min_cycle;Max_cycle;Signal;HPM_P1;HPM_P2
2023/06/30 00:01:39;;;;;;;3.13;2.90;;;17.70;99.90;;;;;;5002172;28;20177;-82
2023/06/30 00:04:07;;;;;;;2.87;2.70;;;17.70;99.90;;;;;;4984924;28;20168;-82
2023/06/30 00:06:42;;;;;;;3.00;2.90;;;17.80;99.90;;;;;;5001900;28;20263;-83
2023/06/30 00:09:07;;;;;;;3.20;3.00;;;17.80;99.90;;;;;;5002404;28;20276;-83
2023/06/30 00:11:33;;;;;;;3.43;3.20;;;17.70;99.90;;;;;;5001981;28;20205;-83
2023/06/30 00:14:00;;;;;;;3.27;3.07;;;17.60;99.90;;;;;;5002441;28;20178;-84
2023/06/30 00:16:27;;;;;;;3.13;2.93;;;17.70;99.90;;;;;;5003140;28;20641;-82
2023/06/30 00:18:55;;;;;;;3.40;3.10;;;17.60;99.90;;;;;;4985585;28;20605;-82
2023/06/30 00:21:22;;;;;;;3.23;3.03;;;17.60;99.90;;;;;;5002797;28;20181;-83
2023/06/30 00:23:48;;;;;;;3.30;3.10;;;17.50;99.90;;;;;;5003070;28;20212;-83
2023/06/30 00:26:15;;;;;;;3.53;3.33;;;17.50;99.90;;;;;;5002641;28;20181;-82
2023/06/30 00:28:42;;;;;;;3.10;2.93;;;17.50;99.90;;;;;;4985659;28;20186;-80
2023/06/30 00:31:08;;;;;;;3.37;3.17;;;17.60;99.90;;;;;;5003167;28;20175;-81
2023/06/30 00:33:34;;;;;;;3.50;3.30;;;17.60;99.90;;;;;;5002689;28;20200;-82
2023/06/30 00:36:06;;;;;;;3.30;3.10;;;17.50;99.90;;;;;;4985936;28;20276;-83
2023/06/30 00:38:32;;;;;;;3.37;3.17;;;17.50;99.90;;;;;;5003500;28;20181;-82
2023/06/30 00:40:58;;;;;;;4.03;3.30;;;17.40;99.90;;;;;;4986958;28;20244;-81
2023/06/30 00:43:24;;;;;;;3.53;3.33;;;17.40;99.90;;;;;;4986475;28;20276;-83
2023/06/30 00:45:49;;;;;;;4.07;3.27;;;17.40;99.90;;;;;;5003548;28;20174;-82
2023/06/30 00:48:17;;;;;;;3.60;3.40;;;17.50;99.90;;;;;;5003797;28;20177;-83
2023/06/30 00:50:43;;;;;;;3.60;3.40;;;17.50;99.90;;;;;;4996070;28;20194;-82
2023/06/30 00:53:13;;;;;;;4.17;3.23;;;17.50;99.90;;;;;;5006519;28;20250;-82
2023/06/30 00:55:41;;;;;;;3.37;2.90;;;17.50;99.90;;;;;;5004290;28;20205;-82
2023/06/30 00:58:08;;;;;;;3.63;3.30;;;17.50;99.90;;;;;;5005213;28;20174;-83
2023/06/30 01:00:34;;;;;;;3.13;3.03;;;17.40;99.90;;;;;;4997034;28;20255;-81
2023/06/30 01:03:24;;;;;;;3.40;3.10;;;17.30;99.90;;;;;;5017771;28;20200;-85
2023/06/30 01:06:03;;;;;;;3.23;3.13;;;17.30;99.90;;;;;;4991463;28;20178;-83
2023/06/30 01:08:42;;;;;;;3.50;3.23;;;17.20;99.90;;;;;;5015101;28;20145;-82
2023/06/30 01:11:11;;;;;;;3.40;3.20;;;17.20;99.90;;;;;;4999700;28;20178;-83
2023/06/30 01:13:38;;;;;;;3.50;3.30;;;17.20;99.90;;;;;;5018192;28;20150;-83
2023/06/30 01:16:11;;;;;;;3.37;3.10;;;17.20;99.90;;;;;;5018462;28;20233;-81
2023/06/30 01:18:41;;;;;;;3.60;3.40;;;17.20;99.90;;;;;;5018143;28;20152;-82
2023/06/30 01:21:13;;;;;;;3.20;3.00;;;17.20;99.90;;;;;;4983636;28;20173;-84
2023/06/30 01:23:51;;;;;;;3.33;3.13;;;17.20;99.90;;;;;;5007234;28;20194;-83
2023/06/30 01:26:19;;;;;;;3.47;3.27;;;17.20;99.90;;;;;;4989810;28;20286;-82
2023/06/30 01:28:46;;;;;;;3.10;3.00;;;17.10;99.90;;;;;;4988008;28;20185;-82
2023/06/30 01:31:13;;;;;;;4.37;3.40;;;17.20;99.90;;;;;;5006062;28;20174;-82
2023/06/30 01:33:45;;;;;;;3.77;3.47;;;17.10;99.90;;;;;;5019491;28;20177;-81
2023/06/30 01:36:10;;;;;;;3.40;3.10;;;17.10;99.90;;;;;;5016479;28;20185;-82
2023/06/30 01:38:43;;;;;;;3.60;3.30;;;17.10;99.90;;;;;;5006447;28;20193;-81
2023/06/30 01:41:11;;;;;;;3.53;3.33;;;17.10;99.90;;;;;;5005301;28;20220;-82
2023/06/30 01:43:39;;;;;;;4.43;3.07;;;17.20;99.90;;;;;;5005059;28;20203;-82
2023/06/30 01:46:07;;;;;;;3.63;3.43;;;17.20;99.90;;;;;;5004594;28;20622;-83
2023/06/30 01:48:34;;;;;;;3.40;3.20;;;17.20;99.90;;;;;;5004889;28;20958;-82
2023/06/30 01:51:00;;;;;;;3.53;3.33;;;17.20;99.90;;;;;;4987699;28;20548;-84
2023/06/30 01:53:26;;;;;;;3.60;3.30;;;17.20;99.90;;;;;;5005346;28;20232;-81
2023/06/30 01:55:54;;;;;;;3.70;3.50;;;17.10;99.90;;;;;;5005930;28;20176;-84
2023/06/30 01:58:21;;;;;;;3.60;3.40;;;17.00;99.90;;;;;;4989819;28;20188;-81
2023/06/30 02:00:50;;;;;;;4.33;3.70;;;17.00;99.90;;;;;;5007008;28;20182;-81
2023/06/30 02:03:18;;;;;;;3.70;3.50;;;17.00;99.90;;;;;;5005697;28;20216;-83
2023/06/30 02:05:44;;;;;;;4.00;3.80;;;17.00;99.90;;;;;;5016246;28;20150;-84
2023/06/30 02:08:13;;;;;;;4.10;3.80;;;16.90;99.90;;;;;;5019622;28;20609;-81
2023/06/30 02:10:39;;;;;;;4.17;3.83;;;16.90;99.90;;;;;;5012320;28;20201;-81
2023/06/30 02:13:05;;;;;;;3.83;3.63;;;16.90;99.90;;;;;;4986806;28;20174;-81
2023/06/30 02:15:31;;;;;;;4.17;3.87;;;16.90;99.90;;;;;;5004141;28;20241;-82
2023/06/30 02:18:00;;;;;;;4.10;3.80;;;16.90;99.90;;;;;;5003788;28;20207;-82
2023/06/30 02:20:32;;;;;;;3.87;3.53;;;17.00;99.90;;;;;;4986070;28;20259;-81
2023/06/30 02:23:02;;;;;;;4.30;4.03;;;16.90;99.90;;;;;;4986309;28;20221;-82
2023/06/30 02:25:30;;;;;;;4.00;3.70;;;17.00;99.90;;;;;;5003937;28;20638;-82
2023/06/30 02:27:57;;;;;;;3.87;3.67;;;17.00;99.90;;;;;;5004606;28;20184;-82
2023/06/30 02:30:26;;;;;;;3.90;3.63;;;17.00;99.90;;;;;;5000645;28;20158;-82
2023/06/30 02:32:53;;;;;;;4.03;3.83;;;17.00;99.90;;;;;;4969642;28;20518;-83
2023/06/30 02:35:19;;;;;;;3.90;3.57;;;17.10;99.90;;;;;;4986832;28;20646;-83
2023/06/30 02:37:45;;;;;;;4.13;3.63;;;17.10;99.90;;;;;;4986073;28;20209;-80
2023/06/30 02:40:11;;;;;;;4.10;3.73;;;17.10;99.90;;;;;;5007578;28;20181;-81
2023/06/30 02:42:40;;;;;;;4.33;4.03;;;17.00;99.90;;;;;;5010663;28;20225;-81
2023/06/30 02:45:07;;;;;;;3.90;3.60;;;17.00;99.90;;;;;;5003756;28;20177;-83
2023/06/30 02:47:33;;;;;;;4.10;3.50;;;17.10;99.90;;;;;;5003988;28;20180;-83
2023/06/30 02:49:59;;;;;;;5.57;3.90;;;17.10;99.90;;;;;;5003172;28;20223;-82
2023/06/30 02:52:25;;;;;;;4.63;4.20;;;17.10;99.90;;;;;;5002840;28;20184;-82
2023/06/30 02:54:51;;;;;;;3.60;3.40;;;17.10;99.90;;;;;;5003354;28;20176;-82
2023/06/30 02:57:24;;;;;;;4.00;3.70;;;17.10;99.90;;;;;;5003415;28;20655;-82
2023/06/30 02:59:49;;;;;;;4.40;4.00;;;17.00;99.90;;;;;;4986693;28;20169;-83
2023/06/30 03:02:15;;;;;;;3.50;3.30;;;16.90;99.90;;;;;;5004241;28;20220;-81
2023/06/30 03:04:41;;;;;;;3.50;3.30;;;16.90;99.90;;;;;;5007976;28;20188;-81
2023/06/30 03:07:07;;;;;;;3.60;3.20;;;16.80;99.90;;;;;;5008063;28;20174;-80
2023/06/30 03:09:32;;;;;;;3.23;3.07;;;16.90;99.90;;;;;;5003763;28;20176;-80
2023/06/30 03:11:58;;;;;;;4.07;3.30;;;16.90;99.90;;;;;;4986499;28;20178;-81
2023/06/30 03:14:25;;;;;;;3.70;3.50;;;16.80;99.90;;;;;;5007825;28;20178;-81
2023/06/30 03:16:51;;;;;;;3.80;3.60;;;16.70;99.90;;;;;;5003329;28;20179;-82
2023/06/30 03:19:16;;;;;;;3.83;3.53;;;16.70;99.90;;;;;;5003420;28;20197;-81
2023/06/30 03:21:44;;;;;;;4.27;3.97;;;16.70;99.90;;;;;;5002486;28;20187;-81
2023/06/30 03:24:12;;;;;;;4.10;3.70;;;16.50;99.90;;;;;;4969103;28;20191;-83
2023/06/30 03:26:37;;;;;;;3.77;3.57;;;16.40;99.90;;;;;;4990987;28;20165;-81
2023/06/30 03:29:03;;;;;;;3.83;3.53;;;16.40;99.90;;;;;;5000363;28;20192;-82
2023/06/30 03:31:29;;;;;;;5.60;3.93;;;16.40;99.90;;;;;;5005072;28;20172;-82
2023/06/30 03:33:58;;;;;;;3.80;3.50;;;16.40;99.90;;;;;;5002690;28;20171;-80
2023/06/30 03:36:25;;;;;;;3.33;3.17;;;16.50;99.90;;;;;;4985013;28;20189;-81
2023/06/30 03:38:50;;;;;;;5.40;3.77;;;16.50;99.90;;;;;;4985901;28;20180;-81
2023/06/30 03:41:16;;;;;;;4.03;3.70;;;16.40;99.90;;;;;;5002049;28;20170;-80
2023/06/30 03:43:42;;;;;;;4.03;3.70;;;16.20;99.90;;;;;;5002518;28;20276;-81
2023/06/30 03:46:11;;;;;;;4.17;3.97;;;16.30;99.90;;;;;;5002449;28;20545;-82
2023/06/30 03:48:37;;;;;;;3.83;3.60;;;16.30;99.90;;;;;;4998868;28;20660;-82
2023/06/30 03:51:03;;;;;;;4.07;3.70;;;16.40;99.90;;;;;;4995756;28;20174;-81
2023/06/30 03:53:29;;;;;;;4.47;4.07;;;16.50;99.90;;;;;;4995143;28;20276;-81
2023/06/30 03:55:54;;;;;;;4.50;4.20;;;16.50;99.90;;;;;;4995125;28;20189;-82
2023/06/30 03:58:20;;;;;;;4.60;3.90;;;16.50;99.90;;;;;;4995298;28;20179;-82
2023/06/30 04:00:46;;;;;;;4.03;3.73;;;16.60;99.90;;;;;;4978414;28;20182;-82
2023/06/30 04:03:12;;;;;;;3.70;3.50;;;16.60;99.90;;;;;;4977742;28;20678;-81
2023/06/30 04:05:38;;;;;;;3.73;3.50;;;16.70;99.90;;;;;;4979354;28;20252;-81
2023/06/30 04:08:04;;;;;;;4.20;3.87;;;16.70;99.90;;;;;;5000903;28;20188;-83
2023/06/30 04:10:29;;;;;;;4.40;4.00;;;16.70;99.90;;;;;;5007779;28;20172;-81
2023/06/30 04:12:55;;;;;;;4.23;3.93;;;16.70;99.90;;;;;;4996815;28;20177;-81
2023/06/30 04:15:21;;;;;;;4.40;4.10;;;16.80;99.90;;;;;;4998639;28;20177;-84
2023/06/30 04:17:47;;;;;;;4.20;3.90;;;16.80;99.90;;;;;;5000798;28;20225;-82
2023/06/30 04:20:15;;;;;;;5.00;4.50;;;16.80;99.90;;;;;;5000278;28;20232;-83
2023/06/30 04:22:41;;;;;;;4.30;4.00;;;16.90;99.90;;;;;;5016496;28;20190;-82
2023/06/30 04:25:07;;;;;;;5.30;4.50;;;17.00;99.90;;;;;;4993702;28;20193;-81
2023/06/30 04:27:34;;;;;;;4.63;4.27;;;17.00;99.90;;;;;;5002602;28;20181;-80
2023/06/30 04:30:00;;;;;;;4.23;3.90;;;17.10;99.90;;;;;;4995553;28;20181;-80
2023/06/30 04:32:26;;;;;;;4.37;3.90;;;17.20;99.90;;;;;;4994803;28;20175;-81
2023/06/30 04:34:53;;;;;;;5.30;4.20;;;17.20;99.90;;;;;;4994668;28;20173;-80
2023/06/30 04:37:19;;;;;;;4.50;4.10;;;17.30;99.90;;;;;;4994731;28;20170;-82
2023/06/30 04:39:47;;;;;;;4.93;4.53;;;17.40;99.90;;;;;;4995413;28;20208;-81
2023/06/30 04:42:14;;;;;;;4.30;3.83;;;17.40;99.90;;;;;;4999824;28;20251;-82
2023/06/30 04:44:40;;;;;;;4.90;4.50;;;17.40;99.90;;;;;;5004114;28;20177;-82
2023/06/30 04:47:06;;;;;;;4.37;4.10;;;17.50;99.90;;;;;;4994555;28;20239;-82
2023/06/30 04:49:32;;;;;;;4.90;4.50;;;17.50;99.90;;;;;;4977514;28;20188;-81
2023/06/30 04:51:58;;;;;;;4.40;4.10;;;17.70;99.90;;;;;;4997219;28;20178;-83
2023/06/30 04:54:24;;;;;;;5.00;4.50;;;17.80;99.90;;;;;;4979967;28;20602;-83
2023/06/30 04:56:50;;;;;;;4.57;4.17;;;17.80;99.90;;;;;;4998580;28;20216;-83
2023/06/30 04:59:15;;;;;;;4.33;3.97;;;18.00;99.90;;;;;;5000886;28;20185;-83
2023/06/30 05:01:41;;;;;;;5.27;4.27;;;18.00;99.90;;;;;;5000197;28;20630;-83
2023/06/30 05:04:08;;;;;;;5.43;4.20;;;18.10;99.90;;;;;;4999179;28;20225;-83
2023/06/30 05:06:33;;;;;;;4.73;4.20;;;18.00;99.90;;;;;;4998568;28;20174;-81
2023/06/30 05:08:59;;;;;;;4.77;4.27;;;18.00;99.90;;;;;;4980714;28;20205;-83
2023/06/30 05:11:25;;;;;;;4.63;4.30;;;18.00;99.90;;;;;;4998331;28;20173;-80
2023/06/30 05:13:50;;;;;;;4.23;3.93;;;18.00;99.90;;;;;;4998786;28;20211;-81
2023/06/30 05:16:16;;;;;;;5.13;4.13;;;18.00;99.90;;;;;;4981505;28;20240;-81
2023/06/30 05:18:42;;;;;;;4.60;4.17;;;18.00;99.90;;;;;;4987495;28;20170;-82
2023/06/30 05:21:08;;;;;;;5.33;4.87;;;18.10;99.90;;;;;;5019994;28;20166;-81
2023/06/30 05:23:34;;;;;;;4.43;4.13;;;18.20;99.90;;;;;;4982019;28;20243;-81
2023/06/30 05:26:00;;;;;;;4.67;4.33;;;18.30;99.90;;;;;;4999354;28;20170;-82
2023/06/30 05:28:27;;;;;;;4.73;4.40;;;18.30;99.90;;;;;;5000070;28;20286;-82
2023/06/30 05:30:53;;;;;;;4.73;4.33;;;18.30;99.90;;;;;;4999320;28;20184;-81
2023/06/30 05:33:19;;;;;;;5.50;4.37;;;18.30;99.90;;;;;;4998720;28;20241;-81
2023/06/30 05:35:45;;;;;;;4.80;4.40;;;18.30;99.90;;;;;;4998050;28;20170;-84
2023/06/30 05:38:10;;;;;;;5.00;4.60;;;18.30;99.90;;;;;;5004794;28;20173;-83
2023/06/30 05:40:36;;;;;;;4.77;4.37;;;18.30;99.90;;;;;;4983432;28;20610;-81
2023/06/30 05:43:02;;;;;;;5.27;4.63;;;18.40;99.90;;;;;;4998391;28;20214;-82
2023/06/30 05:45:28;;;;;;;4.80;4.40;;;18.50;99.90;;;;;;5000257;28;20181;-81
2023/06/30 05:47:54;;;;;;;4.30;4.00;;;18.60;99.90;;;;;;4994557;28;20245;-81
2023/06/30 05:50:21;;;;;;;4.77;4.37;;;18.70;99.90;;;;;;5003982;28;20212;-80
2023/06/30 05:52:48;;;;;;;5.10;4.60;;;18.90;99.90;;;;;;5001195;28;20236;-82
2023/06/30 05:55:14;;;;;;;4.60;4.23;;;19.10;99.90;;;;;;5000688;28;20204;-81
2023/06/30 05:57:39;;;;;;;4.40;4.10;;;19.30;99.90;;;;;;5002081;28;20182;-82
2023/06/30 06:00:07;;;;;;;4.33;4.03;;;19.30;99.90;;;;;;5012247;28;20194;-80
2023/06/30 06:02:34;;;;;;;5.77;5.20;;;19.40;99.90;;;;;;4990549;28;20220;-80
2023/06/30 06:04:59;;;;;;;4.50;4.20;;;19.50;99.90;;;;;;5001618;28;20198;-79
2023/06/30 06:07:25;;;;;;;4.40;4.00;;;19.50;99.90;;;;;;5001028;28;20177;-80
2023/06/30 06:09:51;;;;;;;5.87;4.83;;;19.60;99.90;;;;;;5001807;28;20181;-80
2023/06/30 06:12:17;;;;;;;5.80;4.50;;;19.60;99.90;;;;;;5001721;28;20257;-81
2023/06/30 06:14:43;;;;;;;5.83;5.33;;;19.60;99.90;;;;;;5004055;28;20178;-80
2023/06/30 06:17:08;;;;;;;5.03;4.50;;;19.70;99.90;;;;;;5002185;28;20182;-81
2023/06/30 06:19:34;;;;;;;5.13;4.13;;;19.70;99.90;;;;;;5009951;28;20242;-81
2023/06/30 06:22:00;;;;;;;4.90;4.10;;;19.70;99.90;;;;;;5016629;28;20178;-82
2023/06/30 06:24:26;;;;;;;4.40;4.10;;;19.80;99.90;;;;;;5020177;28;20227;-82
2023/06/30 06:26:51;;;;;;;4.53;4.03;;;19.80;99.90;;;;;;5020427;28;20174;-81
2023/06/30 06:29:22;;;;;;;4.50;4.10;;;20.00;99.90;;;;;;5020741;28;20193;-80
2023/06/30 06:31:52;;;;;;;4.77;4.27;;;20.00;99.90;;;;;;5003423;28;20178;-81
2023/06/30 06:34:21;;;;;;;5.10;4.00;;;20.10;99.90;;;;;;5020189;28;20174;-81
2023/06/30 06:36:47;;;;;;;5.67;4.83;;;20.30;99.90;;;;;;4992538;28;20178;-81
2023/06/30 06:39:14;;;;;;;4.73;4.33;;;20.40;99.90;;;;;;5020040;28;20205;-84
2023/06/30 06:41:40;;;;;;;5.20;4.70;;;20.60;99.90;;;;;;5010332;28;20253;-82
2023/06/30 06:44:06;;;;;;;4.43;4.13;;;20.70;99.90;;;;;;5002619;28;20236;-81
2023/06/30 06:46:32;;;;;;;4.70;4.30;;;20.70;99.90;;;;;;4999537;28;20205;-81
2023/06/30 06:48:59;;;;;;;4.70;3.90;;;20.80;99.90;;;;;;4982176;28;20193;-82
2023/06/30 06:51:25;;;;;;;4.33;4.10;;;21.00;99.90;;;;;;5000240;28;20541;-79
2023/06/30 06:53:53;;;;;;;4.37;4.07;;;21.20;99.90;;;;;;5000106;28;20240;-82
2023/06/30 06:56:19;;;;;;;5.03;4.53;;;21.40;99.90;;;;;;4999545;28;20838;-81
2023/06/30 06:58:45;;;;;;;4.50;4.10;;;21.50;99.90;;;;;;5000180;28;20264;-83
2023/06/30 07:01:14;;;;;;;6.40;4.80;;;21.60;99.90;;;;;;5000709;28;20265;-81
2023/06/30 07:03:40;;;;;;;5.53;4.47;;;21.70;99.90;;;;;;4999078;28;20291;-79
2023/06/30 07:06:06;;;;;;;4.70;4.30;;;21.60;99.90;;;;;;4998702;28;20181;-80
2023/06/30 07:08:35;;;;;;;6.80;4.90;;;21.80;99.90;;;;;;4999166;28;20170;-81
2023/06/30 07:11:06;;;;;;;5.68;4.40;;;22.00;99.90;;;;;;4999844;28;20225;-82
2023/06/30 07:13:32;;;;;;;5.80;4.37;;;22.20;99.90;;;;;;4986015;28;20184;-81
2023/06/30 07:15:58;;;;;;;4.90;4.50;;;22.40;99.90;;;;;;5006125;28;20174;-80
2023/06/30 07:18:25;;;;;;;5.30;4.40;;;22.40;99.90;;;;;;4984843;28;20192;-81
2023/06/30 07:20:54;;;;;;;7.10;5.40;;;22.30;99.90;;;;;;4998188;28;20265;-80
2023/06/30 07:23:20;;;;;;;5.05;4.55;;;22.40;99.90;;;;;;4998448;28;20209;-79
2023/06/30 07:25:46;;;;;;;4.40;4.00;;;22.30;99.90;;;;;;4998762;28;20180;-81
2023/06/30 07:28:12;;;;;;;5.00;4.60;;;22.20;99.90;;;;;;5010819;28;20180;-82
2023/06/30 07:30:40;;;;;;;3.88;3.63;;;22.30;99.90;;;;;;4999228;28;20181;-82
2023/06/30 07:33:06;;;;;;;3.88;3.67;;;22.50;99.90;;;;;;4980764;28;20173;-82
2023/06/30 07:35:31;;;;;;;4.50;4.10;;;22.60;99.90;;;;;;4998742;28;20224;-82
2023/06/30 07:37:57;;;;;;;4.23;3.80;;;22.60;99.90;;;;;;4999890;28;20182;-83
2023/06/30 07:40:23;;;;;;;5.03;4.30;;;22.60;99.90;;;;;;5010830;28;20181;-83
2023/06/30 07:42:49;;;;;;;5.40;4.25;;;22.70;99.90;;;;;;5003465;28;20202;-82
2023/06/30 07:45:16;;;;;;;6.50;4.25;;;22.50;99.90;;;;;;5001354;28;20228;-82
2023/06/30 07:47:43;;;;;;;4.22;3.92;;;22.60;99.90;;;;;;4998418;28;20193;-81
2023/06/30 07:50:12;;;;;;;5.05;4.53;;;22.60;99.90;;;;;;4998467;28;20174;-82
2023/06/30 07:52:46;;;;;;;6.60;4.38;;;22.80;99.90;;;;;;4998182;28;20229;-79
2023/06/30 07:55:12;;;;;;;6.93;4.72;;;22.90;99.90;;;;;;4997281;28;20196;-84
2023/06/30 07:57:38;;;;;;;5.25;4.50;;;22.90;99.90;;;;;;4980282;28;20219;-82
2023/06/30 08:00:06;;;;;;;4.10;3.80;;;23.00;99.90;;;;;;4997993;28;20174;-81
2023/06/30 08:02:33;;;;;;;4.38;4.07;;;23.10;99.90;;;;;;4998167;28;20253;-81
2023/06/30 08:04:59;;;;;;;5.10;3.83;;;23.10;99.90;;;;;;4998472;28;20174;-81
2023/06/30 08:07:25;;;;;;;4.28;3.92;;;23.10;99.90;;;;;;4997932;28;20181;-80
2023/06/30 08:09:51;;;;;;;5.20;4.63;;;23.30;99.90;;;;;;4982140;28;20578;-82
2023/06/30 08:12:16;;;;;;;5.15;4.25;;;23.40;99.90;;;;;;4980351;28;20661;-81
2023/06/30 08:14:42;;;;;;;4.53;4.13;;;23.40;99.90;;;;;;4997604;28;20178;-82
2023/06/30 08:17:08;;;;;;;7.47;4.68;;;23.40;99.90;;;;;;4997466;28;20269;-81
2023/06/30 08:19:37;;;;;;;6.13;4.35;;;23.60;99.90;;;;;;4995636;28;20316;-82
2023/06/30 08:22:03;;;;;;;3.80;3.60;;;23.60;99.90;;;;;;4996011;28;20177;-81
2023/06/30 08:24:29;;;;;;;4.82;4.40;;;23.60;99.90;;;;;;4997607;28;20178;-82
2023/06/30 08:26:54;;;;;;;7.57;6.82;;;23.70;99.90;;;;;;4998317;28;20232;-82
2023/06/30 08:29:20;;;;;;;4.82;4.35;;;23.70;99.90;;;;;;4996885;28;20170;-84
2023/06/30 08:31:46;;;;;;;4.30;4.00;;;23.60;99.90;;;;;;5004616;28;20178;-81
2023/06/30 08:34:11;;;;;;;4.30;4.00;;;23.70;99.90;;;;;;5000345;28;20177;-83
2023/06/30 08:36:37;;;;;;;4.10;3.80;;;23.80;99.90;;;;;;4998816;28;20682;-83
2023/06/30 08:39:03;;;;;;;4.95;3.88;;;24.00;99.90;;;;;;4998152;28;20182;-81
2023/06/30 08:41:30;;;;;;;4.18;3.88;;;24.10;99.90;;;;;;4998061;28;20256;-83
2023/06/30 08:43:56;;;;;;;4.55;3.95;;;24.20;99.90;;;;;;4981322;28;20209;-82
2023/06/30 08:46:26;;;;;;;4.38;3.95;;;24.20;99.60;;;;;;4999146;28;20170;-81
2023/06/30 08:48:52;;;;;;;4.05;3.80;;;24.20;99.90;;;;;;4998328;28;20630;-81
2023/06/30 08:51:19;;;;;;;4.53;4.13;;;24.30;99.60;;;;;;5000910;28;20177;-83
2023/06/30 08:53:48;;;;;;;4.47;4.00;;;24.10;99.80;;;;;;5003262;28;20221;-81
2023/06/30 08:56:15;;;;;;;3.78;3.53;;;24.20;99.90;;;;;;5014878;28;20354;-82
2023/06/30 08:58:41;;;;;;;3.55;3.40;;;24.40;99.90;;;;;;5002213;28;20216;-81
2023/06/30 09:01:08;;;;;;;5.05;3.45;;;24.40;99.90;;;;;;4998935;28;20170;-83
2023/06/30 09:03:36;;;;;;;3.55;3.35;;;24.60;99.90;;;;;;5000486;28;20212;-81
2023/06/30 09:06:01;;;;;;;3.30;3.13;;;24.60;99.00;;;;;;4987968;28;20181;-81
2023/06/30 09:08:53;;;;;;;3.42;3.22;;;24.60;98.40;;;;;;5005577;28;20186;-83
2023/06/30 09:11:23;;;;;;;3.67;3.38;;;24.70;97.50;;;;;;4980252;28;20173;-81
2023/06/30 09:13:48;;;;;;;3.45;3.15;;;24.80;97.90;;;;;;4980528;28;20643;-81
2023/06/30 09:16:17;;;;;;;3.42;3.13;;;24.80;98.10;;;;;;5009072;28;20173;-83
2023/06/30 09:18:45;;;;;;;3.22;3.03;;;24.90;97.70;;;;;;5013912;28;20154;-82
2023/06/30 09:21:11;;;;;;;3.60;3.42;;;24.90;97.70;;;;;;5000711;28;20181;-81
2023/06/30 09:23:38;;;;;;;3.22;3.03;;;24.90;97.70;;;;;;4979415;28;20213;-82
2023/06/30 09:26:14;;;;;;;3.55;3.28;;;25.00;97.60;;;;;;4996989;28;20530;-82
2023/06/30 09:28:42;;;;;;;3.60;3.30;;;25.10;97.70;;;;;;4996569;28;20244;-82
2023/06/30 09:31:10;;;;;;;3.72;3.25;;;25.20;97.80;;;;;;4987327;28;20182;-82
2023/06/30 09:33:38;;;;;;;3.10;2.95;;;25.20;97.70;;;;;;5003878;28;20181;-82
2023/06/30 09:36:05;;;;;;;3.53;3.22;;;25.10;96.90;;;;;;4997443;28;20174;-83
2023/06/30 09:38:30;;;;;;;3.38;3.17;;;25.10;97.00;;;;;;4996480;28;20196;-82
2023/06/30 09:40:56;;;;;;;3.08;2.90;;;25.10;97.50;;;;;;4997205;28;20170;-82
2023/06/30 09:43:23;;;;;;;3.72;3.40;;;25.20;97.80;;;;;;4999668;28;20217;-82
2023/06/30 09:46:01;;;;;;;4.10;3.67;;;25.30;97.80;;;;;;5003580;28;20197;-82
2023/06/30 09:48:40;;;;;;;4.00;3.70;;;25.20;97.40;;;;;;5004844;28;20641;-82
2023/06/30 09:51:07;;;;;;;5.18;3.33;;;25.30;97.70;;;;;;5000035;28;20269;-81
2023/06/30 09:53:38;;;;;;;3.85;3.60;;;25.40;98.40;;;;;;5012621;28;20229;-81
2023/06/30 09:56:04;;;;;;;4.00;3.70;;;25.40;98.80;;;;;;5020564;28;20394;-82
2023/06/30 09:58:30;;;;;;;3.95;3.75;;;25.50;98.30;;;;;;5019282;28;20173;-82
2023/06/30 10:00:57;;;;;;;4.63;4.30;;;25.50;98.00;;;;;;5019061;28;20252;-81
2023/06/30 10:03:22;;;;;;;3.65;3.45;;;25.60;98.20;;;;;;5019414;28;20204;-80
2023/06/30 10:05:48;;;;;;;3.92;3.72;;;25.60;97.70;;;;;;5020090;28;20629;-82
2023/06/30 10:08:15;;;;;;;4.00;3.70;;;25.60;98.10;;;;;;5002546;28;20189;-82
2023/06/30 10:10:42;;;;;;;3.92;3.60;;;25.60;98.70;;;;;;5018561;28;20184;-82
2023/06/30 10:13:11;;;;;;;3.88;3.67;;;25.70;98.80;;;;;;5018601;28;20173;-81
2023/06/30 10:15:37;;;;;;;3.63;3.50;;;25.80;98.50;;;;;;5019299;28;20181;-82
2023/06/30 10:18:05;;;;;;;4.15;3.85;;;25.60;98.10;;;;;;5018534;28;20204;-82
2023/06/30 10:20:31;;;;;;;4.07;3.88;;;25.60;98.80;;;;;;5019627;28;20621;-82
2023/06/30 10:23:00;;;;;;;3.42;3.22;;;25.80;99.90;;;;;;5018951;28;20215;-81
2023/06/30 10:25:28;;;;;;;3.55;3.42;;;25.90;98.30;;;;;;5019135;28;20188;-82
2023/06/30 10:27:54;;;;;;;3.78;3.20;;;26.00;98.00;;;;;;5018620;28;20165;-82
2023/06/30 10:30:21;;;;;;;3.42;3.20;;;26.00;97.50;;;;;;5002898;28;20181;-82
2023/06/30 10:32:47;;;;;;;3.78;3.58;;;26.00;97.10;;;;;;5019543;28;20201;-81
2023/06/30 10:35:15;;;;;;;3.30;3.10;;;26.10;96.70;;;;;;5022386;28;20596;-81
2023/06/30 10:40:26;;;;;;;3.25;3.15;;;26.20;96.90;;;;;;5031993;22;20244;-80
2023/06/30 10:42:54;;;;;;;2.97;2.88;;;26.20;96.60;;;;;;5018216;28;20200;-80
2023/06/30 10:45:20;;;;;;;3.10;2.90;;;26.30;95.80;;;;;;5021023;28;20172;-81
2023/06/30 10:47:51;;;;;;;3.20;2.90;;;26.30;96.10;;;;;;5024265;28;20185;-81
2023/06/30 10:50:17;;;;;;;3.15;2.95;;;26.30;96.50;;;;;;5022494;28;20639;-84
2023/06/30 10:52:54;;;;;;;3.42;3.22;;;26.30;96.60;;;;;;5023276;28;20189;-82
2023/06/30 10:55:25;;;;;;;3.42;3.22;;;26.40;96.70;;;;;;5035089;28;20255;-82
2023/06/30 10:57:53;;;;;;;3.53;3.33;;;26.40;96.80;;;;;;5035147;28;20196;-82
2023/06/30 11:00:21;;;;;;;4.15;3.70;;;26.40;97.40;;;;;;5031105;28;20170;-81
2023/06/30 11:02:52;;;;;;;3.65;3.38;;;26.40;97.80;;;;;;5024111;28;20205;-81
2023/06/30 11:05:27;;;;;;;3.60;3.40;;;26.50;96.80;;;;;;5030024;28;20157;-80
2023/06/30 11:08:06;;;;;;;5.55;3.42;;;26.50;96.50;;;;;;5035071;28;20184;-82
2023/06/30 11:10:32;;;;;;;3.47;3.17;;;26.60;97.30;;;;;;5035796;28;20153;-80
2023/06/30 11:12:58;;;;;;;3.80;3.42;;;26.60;97.70;;;;;;5037926;28;20192;-82
2023/06/30 11:15:33;;;;;;;3.53;3.33;;;26.60;97.20;;;;;;5037397;28;20189;-80
2023/06/30 11:18:00;;;;;;;4.40;3.30;;;26.70;97.20;;;;;;5037438;28;20196;-80
2023/06/30 11:20:26;;;;;;;3.35;3.15;;;26.60;97.40;;;;;;5038303;28;20193;-81
2023/06/30 11:23:17;;;;;;;4.20;3.35;;;26.70;97.70;;;;;;5022630;28;20256;-81
2023/06/30 11:25:43;;;;;;;3.80;3.60;;;26.80;97.60;;;;;;5026350;28;20173;-80
2023/06/30 11:28:11;;;;;;;3.88;3.55;;;26.80;97.10;;;;;;5015503;28;20184;-80
2023/06/30 11:30:41;;;;;;;4.03;3.80;;;26.80;97.00;;;;;;5033652;28;20165;-80
2023/06/30 11:33:07;;;;;;;3.70;3.40;;;26.70;97.70;;;;;;5026161;28;20188;-80
2023/06/30 11:35:35;;;;;;;3.83;3.63;;;26.80;98.10;;;;;;5024490;28;20181;-80
2023/06/30 11:38:01;;;;;;;5.18;4.78;;;26.90;98.30;;;;;;5007764;28;20181;-80
2023/06/30 11:40:27;;;;;;;4.10;3.90;;;26.90;98.60;;;;;;5023778;28;20162;-80
2023/06/30 11:42:53;;;;;;;4.18;3.83;;;27.00;98.00;;;;;;5024490;28;20259;-81
2023/06/30 11:45:20;;;;;;;3.78;3.55;;;27.00;97.20;;;;;;5024238;28;20180;-81
2023/06/30 11:47:51;;;;;;;3.60;3.40;;;26.80;97.40;;;;;;5024837;28;20193;-81
2023/06/30 11:50:18;;;;;;;4.07;3.75;;;26.90;98.00;;;;;;5029750;28;20199;-82
2023/06/30 11:52:45;;;;;;;4.38;4.03;;;26.90;98.00;;;;;;5003987;28;20274;-82
2023/06/30 11:55:12;;;;;;;3.78;3.58;;;27.00;98.40;;;;;;5026111;28;20233;-81
2023/06/30 11:57:43;;;;;;;3.67;3.40;;;27.10;97.90;;;;;;5024920;28;20172;-82
2023/06/30 12:00:15;;;;;;;7.55;3.55;;;27.10;97.90;;;;;;5015356;28;20641;-82
2023/06/30 12:02:48;;;;;;;3.38;3.17;;;27.10;97.60;;;;;;5014982;28;20212;-83
2023/06/30 12:05:21;;;;;;;3.70;3.40;;;27.10;97.20;;;;;;5014859;28;20184;-81
2023/06/30 12:07:49;;;;;;;3.55;3.35;;;27.20;97.10;;;;;;5014449;28;20526;-82
2023/06/30 12:10:15;;;;;;;3.40;3.25;;;27.10;96.50;;;;;;5014719;28;20637;-83
2023/06/30 12:12:42;;;;;;;3.50;3.30;;;27.20;96.20;;;;;;5014301;28;20173;-79
2023/06/30 12:15:10;;;;;;;3.45;3.15;;;27.20;96.60;;;;;;5014166;28;20177;-79
2023/06/30 12:17:43;;;;;;;3.50;3.33;;;27.10;96.10;;;;;;5014829;28;20276;-80
2023/06/30 12:20:10;;;;;;;3.42;3.28;;;27.20;95.70;;;;;;5015154;28;20221;-82
2023/06/30 12:22:41;;;;;;;3.30;3.10;;;27.10;95.60;;;;;;5020320;28;20200;-83
2023/06/30 12:25:11;;;;;;;3.55;3.35;;;27.10;96.20;;;;;;5023872;28;20176;-82
2023/06/30 12:27:41;;;;;;;3.53;3.22;;;27.10;96.40;;;;;;5018161;28;20525;-82
2023/06/30 12:30:18;;;;;;;3.65;3.35;;;27.10;96.50;;;;;;5015058;28;20165;-83
2023/06/30 12:32:44;;;;;;;3.28;3.13;;;27.00;96.20;;;;;;5015077;28;20165;-83
2023/06/30 12:35:11;;;;;;;3.42;3.22;;;27.00;96.30;;;;;;5024794;28;20200;-81
2023/06/30 12:37:38;;;;;;;4.00;3.38;;;27.00;96.30;;;;;;5022510;28;20272;-82
2023/06/30 12:40:08;;;;;;;3.30;3.10;;;27.00;95.70;;;;;;5014607;28;20221;-83
2023/06/30 12:42:34;;;;;;;2.97;2.85;;;27.00;95.90;;;;;;5014803;28;20227;-81
2023/06/30 12:45:00;;;;;;;3.25;3.15;;;27.10;95.80;;;;;;5015107;28;20204;-81
2023/06/30 12:47:26;;;;;;;3.03;2.92;;;27.10;96.10;;;;;;4997189;28;20173;-84
2023/06/30 12:49:51;;;;;;;3.53;3.38;;;27.20;95.90;;;;;;5019425;28;20177;-80
2023/06/30 12:52:18;;;;;;;3.28;2.97;;;27.20;95.80;;;;;;5027379;28;20664;-80